createdAt,value
2017-07-18T00:01:52.268Z,1007.89
2017-07-18T00:02:32.719Z,1007.91
2017-07-18T00:03:13.211Z,1007.92
2017-07-18T00:03:53.694Z,1007.92
2017-07-18T00:04:34.195Z,1007.89
2017-07-18T00:05:14.685Z,1007.89
2017-07-18T00:05:55.175Z,1007.9
2017-07-18T00:06:35.620Z,1007.92
2017-07-18T00:07:16.055Z,1007.93
2017-07-18T00:07:56.570Z,1007.9
2017-07-18T00:10:14.414Z,1007.91
2017-07-18T00:10:54.848Z,1007.9
2017-07-18T00:11:35.323Z,1007.9
2017-07-18T00:12:15.780Z,1007.87
2017-07-18T00:12:56.249Z,1007.89
2017-07-18T00:13:36.744Z,1007.92
2017-07-18T00:14:17.202Z,1007.91
2017-07-18T00:14:57.647Z,1007.93
2017-07-18T00:15:38.120Z,1007.9
2017-07-18T00:16:18.552Z,1007.92
2017-07-18T00:16:58.991Z,1007.93
2017-07-18T00:17:39.482Z,1007.91
2017-07-18T00:18:19.885Z,1007.91
2017-07-18T00:20:12.534Z,1007.87
2017-07-18T00:20:52.947Z,1007.88
2017-07-18T00:21:33.374Z,1007.87
2017-07-18T00:22:13.861Z,1007.87
2017-07-18T00:22:54.330Z,1007.87
2017-07-18T00:23:34.756Z,1007.86
2017-07-18T00:24:15.245Z,1007.87
2017-07-18T00:24:55.755Z,1007.84
2017-07-18T00:25:36.202Z,1007.87
2017-07-18T00:26:16.692Z,1007.86
2017-07-18T00:26:57.114Z,1007.85
2017-07-18T00:29:25.193Z,1007.84
2017-07-18T00:30:05.676Z,1007.85
2017-07-18T00:30:46.167Z,1007.88
2017-07-18T00:31:26.643Z,1007.85
2017-07-18T00:32:07.109Z,1007.85
2017-07-18T00:32:47.602Z,1007.82
2017-07-18T00:33:28.073Z,1007.83
2017-07-18T00:35:56.024Z,1007.82
2017-07-18T00:36:36.511Z,1007.79
2017-07-18T00:37:16.988Z,1007.83
2017-07-18T00:37:57.433Z,1007.78
2017-07-18T00:38:37.899Z,1007.8
2017-07-18T00:39:18.360Z,1007.77
2017-07-18T00:39:58.845Z,1007.8
2017-07-18T00:40:39.238Z,1007.79
2017-07-18T00:41:19.764Z,1007.79
2017-07-18T00:42:00.245Z,1007.77
2017-07-18T00:42:40.661Z,1007.78
2017-07-18T00:43:21.103Z,1007.82
2017-07-18T00:44:01.520Z,1007.8
2017-07-18T00:45:54.068Z,1007.78
2017-07-18T00:46:34.548Z,1007.78
2017-07-18T00:47:15.059Z,1007.79
2017-07-18T00:47:55.550Z,1007.77
2017-07-18T00:48:36.028Z,1007.78
2017-07-18T00:49:16.529Z,1007.77
2017-07-18T00:49:56.985Z,1007.78
2017-07-18T00:50:37.473Z,1007.78
2017-07-18T00:51:17.951Z,1007.78
2017-07-18T00:51:58.389Z,1007.78
2017-07-18T00:52:38.846Z,1007.78
2017-07-18T00:53:19.320Z,1007.78
2017-07-18T00:53:59.805Z,1007.77
2017-07-18T00:55:52.488Z,1007.77
2017-07-18T00:56:32.974Z,1007.78
2017-07-18T00:57:13.458Z,1007.79
2017-07-18T00:57:54.000Z,1007.78
2017-07-18T00:58:34.418Z,1007.75
2017-07-18T00:59:14.936Z,1007.74
2017-07-18T00:59:55.418Z,1007.74
2017-07-18T01:00:35.911Z,1007.76
2017-07-18T01:01:16.360Z,1007.76
2017-07-18T01:01:56.845Z,1007.71
2017-07-18T01:02:37.336Z,1007.75
2017-07-18T01:03:17.801Z,1007.75
2017-07-18T01:05:15.459Z,1007.77
2017-07-18T01:05:56.023Z,1007.75
2017-07-18T01:06:36.510Z,1007.73
2017-07-18T01:07:16.980Z,1007.71
2017-07-18T01:07:57.490Z,1007.74
2017-07-18T01:08:37.967Z,1007.73
2017-07-18T01:09:18.445Z,1007.7
2017-07-18T01:09:58.961Z,1007.71
2017-07-18T01:10:39.431Z,1007.7
2017-07-18T01:11:19.883Z,1007.68
2017-07-18T01:12:00.331Z,1007.68
2017-07-18T01:12:40.751Z,1007.67
2017-07-18T01:13:21.206Z,1007.65
2017-07-18T01:14:01.689Z,1007.67
2017-07-18T01:14:42.161Z,1007.68
2017-07-18T01:15:22.567Z,1007.65
2017-07-18T01:17:15.130Z,1007.66
2017-07-18T01:17:55.621Z,1007.64
2017-07-18T01:18:36.104Z,1007.62
2017-07-18T01:19:16.591Z,1007.64
2017-07-18T01:19:57.093Z,1007.61
2017-07-18T01:20:37.567Z,1007.59
2017-07-18T01:21:18.068Z,1007.58
2017-07-18T01:21:58.573Z,1007.61
2017-07-18T01:22:39.053Z,1007.59
2017-07-18T01:23:19.558Z,1007.56
2017-07-18T01:24:00.074Z,1007.58
2017-07-18T01:24:40.539Z,1007.57
2017-07-18T01:25:20.989Z,1007.58
2017-07-18T01:26:01.458Z,1007.56
2017-07-18T01:26:41.899Z,1007.54
2017-07-18T01:27:22.312Z,1007.56
2017-07-18T01:28:02.759Z,1007.56
2017-07-18T01:28:43.227Z,1007.54
2017-07-18T01:29:23.664Z,1007.54
2017-07-18T01:31:16.235Z,1007.53
2017-07-18T01:31:56.736Z,1007.52
2017-07-18T01:32:37.218Z,1007.5
2017-07-18T01:33:17.669Z,1007.51
2017-07-18T01:33:58.143Z,1007.48
2017-07-18T01:34:38.633Z,1007.5
2017-07-18T01:35:19.141Z,1007.47
2017-07-18T01:35:59.558Z,1007.48
2017-07-18T01:36:40.012Z,1007.44
2017-07-18T01:37:20.473Z,1007.47
2017-07-18T01:38:00.925Z,1007.47
2017-07-18T01:38:41.397Z,1007.46
2017-07-18T01:39:21.922Z,1007.44
2017-07-18T01:40:02.407Z,1007.43
2017-07-18T01:40:42.877Z,1007.43
2017-07-18T01:41:23.313Z,1007.43
2017-07-18T01:42:03.851Z,1007.46
2017-07-18T01:42:44.327Z,1007.45
2017-07-18T01:43:24.784Z,1007.45
2017-07-18T01:44:05.269Z,1007.43
2017-07-18T01:44:45.736Z,1007.46
2017-07-18T01:46:58.464Z,1007.46
2017-07-18T01:47:38.944Z,1007.45
2017-07-18T01:48:19.411Z,1007.42
2017-07-18T01:48:59.934Z,1007.4
2017-07-18T01:49:40.381Z,1007.41
2017-07-18T01:50:20.867Z,1007.4
2017-07-18T01:51:01.289Z,1007.4
2017-07-18T01:51:41.768Z,1007.37
2017-07-18T01:52:22.195Z,1007.38
2017-07-18T01:53:02.663Z,1007.38
2017-07-18T01:53:43.101Z,1007.38
2017-07-18T01:54:23.552Z,1007.38
2017-07-18T01:55:04.005Z,1007.37
2017-07-18T01:55:44.462Z,1007.39
2017-07-18T01:56:24.931Z,1007.4
2017-07-18T01:57:05.342Z,1007.38
2017-07-18T01:57:45.785Z,1007.38
2017-07-18T01:58:26.241Z,1007.41
2017-07-18T01:59:06.707Z,1007.39
2017-07-18T01:59:47.176Z,1007.37
2017-07-18T02:00:27.593Z,1007.38
2017-07-18T02:01:08.082Z,1007.36
2017-07-18T02:01:48.519Z,1007.37
2017-07-18T02:02:28.999Z,1007.36
2017-07-18T02:03:09.436Z,1007.35
2017-07-18T02:05:37.517Z,1007.3
2017-07-18T02:06:17.937Z,1007.34
2017-07-18T02:06:58.338Z,1007.32
2017-07-18T02:07:38.866Z,1007.28
2017-07-18T02:08:19.325Z,1007.3
2017-07-18T02:08:59.867Z,1007.31
2017-07-18T02:09:41.100Z,1007.33
2017-07-18T02:10:21.517Z,1007.3
2017-07-18T02:11:02.949Z,1007.31
2017-07-18T02:11:43.476Z,1007.32
2017-07-18T02:12:23.891Z,1007.31
2017-07-18T02:13:04.301Z,1007.32
2017-07-18T02:13:44.755Z,1007.32
2017-07-18T02:14:25.187Z,1007.3
2017-07-18T02:15:05.671Z,1007.26
2017-07-18T02:15:46.136Z,1007.33
2017-07-18T02:16:26.640Z,1007.31
2017-07-18T02:17:07.043Z,1007.33
2017-07-18T02:17:47.495Z,1007.29
2017-07-18T02:18:28.670Z,1007.3
2017-07-18T02:19:09.041Z,1007.32
2017-07-18T02:19:49.486Z,1007.32
2017-07-18T02:20:29.911Z,1007.32
2017-07-18T02:21:10.410Z,1007.28
2017-07-18T02:21:50.853Z,1007.29
2017-07-18T02:22:31.304Z,1007.3
2017-07-18T02:23:11.752Z,1007.3
2017-07-18T02:23:52.155Z,1007.3
2017-07-18T02:24:32.650Z,1007.27
2017-07-18T02:25:13.143Z,1007.27
2017-07-18T02:25:53.637Z,1007.26
2017-07-18T02:26:34.155Z,1007.26
2017-07-18T02:27:14.575Z,1007.28
2017-07-18T02:27:55.997Z,1007.26
2017-07-18T02:28:36.413Z,1007.27
2017-07-18T02:29:16.843Z,1007.28
2017-07-18T02:29:57.381Z,1007.25
2017-07-18T02:30:37.797Z,1007.29
2017-07-18T02:31:18.384Z,1007.24
2017-07-18T02:31:58.809Z,1007.28
2017-07-18T02:32:39.302Z,1007.27
2017-07-18T02:33:19.745Z,1007.26
2017-07-18T02:34:00.153Z,1007.29
2017-07-18T02:34:40.635Z,1007.23
2017-07-18T02:35:21.102Z,1007.24
2017-07-18T02:36:01.505Z,1007.23
2017-07-18T02:36:41.978Z,1007.27
2017-07-18T02:37:22.445Z,1007.22
2017-07-18T02:38:02.883Z,1007.22
2017-07-18T02:38:43.358Z,1007.27
2017-07-18T02:39:23.804Z,1007.25
2017-07-18T02:40:04.193Z,1007.24
2017-07-18T02:40:44.703Z,1007.23
2017-07-18T02:41:25.141Z,1007.24
2017-07-18T02:42:05.545Z,1007.23
2017-07-18T02:42:46.026Z,1007.23
2017-07-18T02:43:26.427Z,1007.22
2017-07-18T02:44:06.948Z,1007.22
2017-07-18T02:44:47.436Z,1007.27
2017-07-18T02:45:27.834Z,1007.21
2017-07-18T02:46:08.408Z,1007.25
2017-07-18T02:46:49.474Z,1007.23
2017-07-18T02:47:29.922Z,1007.22
2017-07-18T02:48:10.364Z,1007.24
2017-07-18T02:48:50.801Z,1007.24
2017-07-18T02:49:31.989Z,1007.19
2017-07-18T02:50:12.445Z,1007.2
2017-07-18T02:50:52.910Z,1007.2
2017-07-18T02:51:33.542Z,1007.22
2017-07-18T02:52:14.019Z,1007.23
2017-07-18T02:52:54.446Z,1007.22
2017-07-18T02:53:34.908Z,1007.23
2017-07-18T02:54:15.320Z,1007.22
2017-07-18T02:54:55.847Z,1007.24
2017-07-18T02:55:36.216Z,1007.23
2017-07-18T02:56:16.732Z,1007.22
2017-07-18T02:56:57.136Z,1007.23
2017-07-18T02:57:37.611Z,1007.24
2017-07-18T02:58:18.103Z,1007.21
2017-07-18T02:58:58.600Z,1007.2
2017-07-18T02:59:39.068Z,1007.18
2017-07-18T03:00:19.531Z,1007.2
2017-07-18T03:00:59.966Z,1007.23
2017-07-18T03:01:40.446Z,1007.2
2017-07-18T03:02:20.891Z,1007.19
2017-07-18T03:03:01.341Z,1007.19
2017-07-18T03:03:41.738Z,1007.24
2017-07-18T03:04:22.221Z,1007.24
2017-07-18T03:05:02.658Z,1007.26
2017-07-18T03:05:43.242Z,1007.26
2017-07-18T03:06:23.798Z,1007.22
2017-07-18T03:07:04.213Z,1007.2
2017-07-18T03:07:44.621Z,1007.22
2017-07-18T03:08:25.075Z,1007.23
2017-07-18T03:09:05.530Z,1007.2
2017-07-18T03:09:46.000Z,1007.19
2017-07-18T03:10:26.457Z,1007.22
2017-07-18T03:11:06.865Z,1007.16
2017-07-18T03:11:47.276Z,1007.19
2017-07-18T03:12:27.725Z,1007.18
2017-07-18T03:13:08.418Z,1007.2
2017-07-18T03:13:48.853Z,1007.18
2017-07-18T03:14:29.247Z,1007.19
2017-07-18T03:15:09.698Z,1007.22
2017-07-18T03:15:50.207Z,1007.2
2017-07-18T03:16:30.621Z,1007.17
2017-07-18T03:17:11.042Z,1007.17
2017-07-18T03:17:51.527Z,1007.18
2017-07-18T03:18:31.974Z,1007.18
2017-07-18T03:19:12.362Z,1007.15
2017-07-18T03:19:52.837Z,1007.16
2017-07-18T03:20:33.273Z,1007.18
2017-07-18T03:21:13.808Z,1007.18
2017-07-18T03:21:54.280Z,1007.2
2017-07-18T03:22:34.746Z,1007.15
2017-07-18T03:23:15.189Z,1007.14
2017-07-18T03:23:55.617Z,1007.14
2017-07-18T03:24:36.995Z,1007.16
2017-07-18T03:25:17.500Z,1007.17
2017-07-18T03:25:57.904Z,1007.14
2017-07-18T03:26:38.379Z,1007.15
2017-07-18T03:27:18.798Z,1007.17
2017-07-18T03:27:59.231Z,1007.16
2017-07-18T03:28:39.651Z,1007.16
2017-07-18T03:29:20.143Z,1007.15
2017-07-18T03:30:00.654Z,1007.15
2017-07-18T03:30:41.125Z,1007.19
2017-07-18T03:31:21.606Z,1007.19
2017-07-18T03:32:02.062Z,1007.16
2017-07-18T03:32:42.430Z,1007.19
2017-07-18T03:33:22.883Z,1007.18
2017-07-18T03:34:03.336Z,1007.2
2017-07-18T03:34:43.769Z,1007.19
2017-07-18T03:35:24.247Z,1007.18
2017-07-18T03:36:04.714Z,1007.16
2017-07-18T03:36:45.109Z,1007.18
2017-07-18T03:37:25.601Z,1007.19
2017-07-18T03:38:06.002Z,1007.16
2017-07-18T03:38:46.462Z,1007.19
2017-07-18T03:39:26.905Z,1007.18
2017-07-18T03:40:07.335Z,1007.17
2017-07-18T03:40:47.790Z,1007.18
2017-07-18T03:41:28.288Z,1007.14
2017-07-18T03:42:08.796Z,1007.11
2017-07-18T03:42:49.215Z,1007.16
2017-07-18T03:43:29.618Z,1007.17
2017-07-18T03:44:10.121Z,1007.16
2017-07-18T03:44:50.512Z,1007.17
2017-07-18T03:45:30.987Z,1007.14
2017-07-18T03:46:11.459Z,1007.15
2017-07-18T03:46:51.917Z,1007.15
2017-07-18T03:47:32.330Z,1007.16
2017-07-18T03:48:12.793Z,1007.18
2017-07-18T03:48:53.249Z,1007.16
2017-07-18T03:49:33.779Z,1007.17
2017-07-18T03:50:14.170Z,1007.18
2017-07-18T03:50:54.649Z,1007.19
2017-07-18T03:51:35.172Z,1007.15
2017-07-18T03:52:15.625Z,1007.19
2017-07-18T03:52:56.145Z,1007.16
2017-07-18T03:53:36.625Z,1007.14
2017-07-18T03:54:17.118Z,1007.16
2017-07-18T03:54:57.515Z,1007.18
2017-07-18T03:55:37.973Z,1007.15
2017-07-18T03:56:18.487Z,1007.14
2017-07-18T03:56:59.112Z,1007.17
2017-07-18T03:57:39.543Z,1007.2
2017-07-18T03:58:19.986Z,1007.17
2017-07-18T03:59:00.435Z,1007.2
2017-07-18T03:59:40.899Z,1007.24
2017-07-18T04:00:21.826Z,1007.19
2017-07-18T04:01:02.293Z,1007.22
2017-07-18T04:01:42.752Z,1007.28
2017-07-18T04:02:23.207Z,1007.24
2017-07-18T04:03:03.660Z,1007.27
2017-07-18T04:03:44.756Z,1007.22
2017-07-18T04:04:25.188Z,1007.18
2017-07-18T04:05:05.606Z,1007.23
2017-07-18T04:05:46.026Z,1007.26
2017-07-18T04:06:26.551Z,1007.2
2017-07-18T04:07:06.982Z,1007.22
2017-07-18T04:07:47.435Z,1007.25
2017-07-18T04:08:27.972Z,1007.24
2017-07-18T04:09:08.457Z,1007.23
2017-07-18T04:09:48.939Z,1007.21
2017-07-18T04:10:29.401Z,1007.21
2017-07-18T04:11:09.843Z,1007.2
2017-07-18T04:11:50.271Z,1007.24
2017-07-18T04:12:30.777Z,1007.19
2017-07-18T04:13:11.210Z,1007.22
2017-07-18T04:13:51.622Z,1007.23
2017-07-18T04:14:32.065Z,1007.28
2017-07-18T04:15:12.587Z,1007.3
2017-07-18T04:15:52.962Z,1007.27
2017-07-18T04:16:33.554Z,1007.27
2017-07-18T04:17:14.001Z,1007.31
2017-07-18T04:17:54.473Z,1007.3
2017-07-18T04:18:34.920Z,1007.27
2017-07-18T04:19:15.375Z,1007.3
2017-07-18T04:19:55.792Z,1007.32
2017-07-18T04:20:36.230Z,1007.3
2017-07-18T04:21:16.747Z,1007.34
2017-07-18T04:21:57.092Z,1007.32
2017-07-18T04:22:37.575Z,1007.36
2017-07-18T04:23:18.033Z,1007.33
2017-07-18T04:23:58.491Z,1007.33
2017-07-18T04:24:38.934Z,1007.35
2017-07-18T04:25:19.398Z,1007.34
2017-07-18T04:25:59.841Z,1007.32
2017-07-18T04:26:40.311Z,1007.31
2017-07-18T04:27:20.771Z,1007.31
2017-07-18T04:28:01.197Z,1007.3
2017-07-18T04:28:41.795Z,1007.3
2017-07-18T04:29:22.250Z,1007.3
2017-07-18T04:30:02.675Z,1007.29
2017-07-18T04:30:43.157Z,1007.3
2017-07-18T04:31:23.675Z,1007.3
2017-07-18T04:32:04.008Z,1007.33
2017-07-18T04:32:44.501Z,1007.29
2017-07-18T04:33:24.911Z,1007.29
2017-07-18T04:34:05.359Z,1007.31
2017-07-18T04:34:45.798Z,1007.33
2017-07-18T04:35:26.279Z,1007.3
2017-07-18T04:36:06.738Z,1007.29
2017-07-18T04:36:47.171Z,1007.32
2017-07-18T04:37:27.599Z,1007.29
2017-07-18T04:38:08.143Z,1007.32
2017-07-18T04:38:48.618Z,1007.35
2017-07-18T04:39:29.062Z,1007.32
2017-07-18T04:40:09.551Z,1007.35
2017-07-18T04:40:49.949Z,1007.32
2017-07-18T04:41:30.399Z,1007.33
2017-07-18T04:42:10.884Z,1007.34
2017-07-18T04:42:51.319Z,1007.32
2017-07-18T04:43:31.774Z,1007.33
2017-07-18T04:44:12.232Z,1007.31
2017-07-18T04:44:52.721Z,1007.31
2017-07-18T04:45:33.145Z,1007.31
2017-07-18T04:46:13.753Z,1007.36
2017-07-18T04:46:54.150Z,1007.34
2017-07-18T04:47:34.679Z,1007.37
2017-07-18T04:48:15.093Z,1007.35
2017-07-18T04:48:55.542Z,1007.37
2017-07-18T04:49:35.981Z,1007.33
2017-07-18T04:50:16.467Z,1007.36
2017-07-18T04:50:56.915Z,1007.34
2017-07-18T04:51:37.383Z,1007.34
2017-07-18T04:52:17.855Z,1007.34
2017-07-18T04:52:58.378Z,1007.31
2017-07-18T04:53:38.826Z,1007.33
2017-07-18T04:54:19.317Z,1007.31
2017-07-18T04:54:59.776Z,1007.32
2017-07-18T04:55:40.260Z,1007.29
2017-07-18T04:56:21.310Z,1007.31
2017-07-18T04:57:01.766Z,1007.3
2017-07-18T04:57:42.196Z,1007.32
2017-07-18T04:58:22.655Z,1007.27
2017-07-18T04:59:03.160Z,1007.28
2017-07-18T04:59:43.675Z,1007.31
2017-07-18T05:01:36.278Z,1007.32
2017-07-18T05:02:16.739Z,1007.3
2017-07-18T05:02:57.223Z,1007.36
2017-07-18T05:03:37.718Z,1007.27
2017-07-18T05:04:18.166Z,1007.3
2017-07-18T05:04:58.614Z,1007.27
2017-07-18T05:05:39.097Z,1007.29
2017-07-18T05:06:19.524Z,1007.27
2017-07-18T05:06:59.964Z,1007.27
2017-07-18T05:07:40.421Z,1007.25
2017-07-18T05:08:20.919Z,1007.23
2017-07-18T05:10:38.705Z,1007.25
2017-07-18T05:11:19.212Z,1007.24
2017-07-18T05:11:59.694Z,1007.21
2017-07-18T05:14:17.508Z,1007.27
2017-07-18T05:14:57.980Z,1007.26
2017-07-18T05:15:38.479Z,1007.28
2017-07-18T05:18:06.461Z,1007.3
2017-07-18T05:18:46.901Z,1007.27
2017-07-18T05:19:27.397Z,1007.28
2017-07-18T05:20:07.863Z,1007.28
2017-07-18T05:20:48.347Z,1007.31
2017-07-18T05:21:28.833Z,1007.25
2017-07-18T05:23:21.708Z,1007.29
2017-07-18T05:24:02.222Z,1007.24
2017-07-18T05:24:42.723Z,1007.25
2017-07-18T05:25:23.147Z,1007.27
2017-07-18T05:26:03.617Z,1007.26
2017-07-18T05:26:44.115Z,1007.28
2017-07-18T05:27:24.757Z,1007.26
2017-07-18T05:28:05.222Z,1007.25
2017-07-18T05:28:45.674Z,1007.22
2017-07-18T05:29:26.146Z,1007.2
2017-07-18T05:31:23.792Z,1007.19
2017-07-18T05:33:41.551Z,1007.21
2017-07-18T05:34:22.020Z,1007.16
2017-07-18T05:35:02.521Z,1007.15
2017-07-18T05:35:43.105Z,1007.19
2017-07-18T05:36:23.597Z,1007.2
2017-07-18T05:37:04.091Z,1007.2
2017-07-18T05:39:01.726Z,1007.22
2017-07-18T05:39:42.218Z,1007.19
2017-07-18T05:40:22.699Z,1007.19
2017-07-18T05:41:03.191Z,1007.19
2017-07-18T05:41:43.674Z,1007.23
2017-07-18T05:42:24.171Z,1007.18
2017-07-18T05:43:04.628Z,1007.18
2017-07-18T05:43:45.090Z,1007.21
2017-07-18T05:44:25.593Z,1007.19
2017-07-18T05:46:18.197Z,1007.27
2017-07-18T05:46:58.637Z,1007.24
2017-07-18T05:47:39.125Z,1007.25
2017-07-18T05:48:19.604Z,1007.21
2017-07-18T05:49:00.114Z,1007.24
2017-07-18T05:49:40.525Z,1007.25
2017-07-18T05:51:33.094Z,1007.22
2017-07-18T05:52:13.574Z,1007.21
2017-07-18T05:52:54.068Z,1007.19
2017-07-18T05:53:34.555Z,1007.19
2017-07-18T05:54:15.071Z,1007.18
2017-07-18T05:54:55.509Z,1007.16
2017-07-18T05:55:35.983Z,1007.2
2017-07-18T05:58:03.918Z,1007.18
2017-07-18T05:58:44.418Z,1007.2
2017-07-18T05:59:24.899Z,1007.2
2017-07-18T06:00:05.367Z,1007.18
2017-07-18T06:00:45.860Z,1007.17
2017-07-18T06:01:26.365Z,1007.16
2017-07-18T06:02:06.856Z,1007.17
2017-07-18T06:02:47.325Z,1007.15
2017-07-18T06:03:27.806Z,1007.17
2017-07-18T06:05:40.548Z,1007.17
2017-07-18T06:06:21.051Z,1007.16
2017-07-18T06:07:01.531Z,1007.16
2017-07-18T06:07:42.024Z,1007.16
2017-07-18T06:08:22.532Z,1007.17
2017-07-18T06:09:03.014Z,1007.22
2017-07-18T06:09:43.495Z,1007.16
2017-07-18T06:10:23.961Z,1007.16
2017-07-18T06:11:04.422Z,1007.17
2017-07-18T06:11:44.839Z,1007.17
2017-07-18T06:12:25.279Z,1007.17
2017-07-18T06:13:05.746Z,1007.14
2017-07-18T06:13:46.217Z,1007.14
2017-07-18T06:14:26.699Z,1007.13
2017-07-18T06:15:07.226Z,1007.14
2017-07-18T06:15:47.654Z,1007.16
2017-07-18T06:16:28.131Z,1007.18
2017-07-18T06:17:08.593Z,1007.17
2017-07-18T06:17:49.058Z,1007.19
2017-07-18T06:20:17.045Z,1007.16
2017-07-18T06:20:57.502Z,1007.18
2017-07-18T06:21:37.985Z,1007.16
2017-07-18T06:22:18.443Z,1007.19
2017-07-18T06:22:58.871Z,1007.22
2017-07-18T06:23:39.361Z,1007.16
2017-07-18T06:24:19.774Z,1007.18
2017-07-18T06:25:00.214Z,1007.23
2017-07-18T06:26:52.975Z,1007.18
2017-07-18T06:27:33.449Z,1007.17
2017-07-18T06:28:13.973Z,1007.22
2017-07-18T06:28:54.488Z,1007.19
2017-07-18T06:30:52.190Z,1007.21
2017-07-18T06:31:32.661Z,1007.2
2017-07-18T06:32:13.103Z,1007.2
2017-07-18T06:32:53.596Z,1007.21
2017-07-18T06:33:34.128Z,1007.19
2017-07-18T06:35:46.863Z,1007.19
2017-07-18T06:36:27.359Z,1007.22
2017-07-18T06:37:07.876Z,1007.18
2017-07-18T06:37:48.294Z,1007.21
2017-07-18T06:38:28.745Z,1007.18
2017-07-18T06:39:09.208Z,1007.2
2017-07-18T06:39:49.706Z,1007.2
2017-07-18T06:40:30.230Z,1007.2
2017-07-18T06:41:10.873Z,1007.19
2017-07-18T06:41:51.348Z,1007.21
2017-07-18T06:42:31.759Z,1007.17
2017-07-18T06:43:12.253Z,1007.16
2017-07-18T06:43:53.257Z,1007.16
2017-07-18T06:44:33.719Z,1007.14
2017-07-18T06:45:14.158Z,1007.14
2017-07-18T06:45:54.692Z,1007.08
2017-07-18T06:46:35.137Z,1007.04
2017-07-18T06:47:15.578Z,1007.08
2017-07-18T06:47:56.026Z,1007.08
2017-07-18T06:48:36.456Z,1007.05
2017-07-18T06:49:16.975Z,1007.06
2017-07-18T06:49:57.439Z,1007.02
2017-07-18T06:50:37.901Z,1007.02
2017-07-18T06:51:18.494Z,1007.01
2017-07-18T06:51:58.867Z,1006.99
2017-07-18T06:52:39.316Z,1006.99
2017-07-18T06:53:19.794Z,1007
2017-07-18T06:54:00.288Z,1006.99
2017-07-18T06:54:40.848Z,1006.99
2017-07-18T06:55:21.326Z,1006.93
2017-07-18T06:56:01.828Z,1006.93
2017-07-18T06:56:42.335Z,1006.97
2017-07-18T06:57:22.827Z,1006.95
2017-07-18T06:59:20.465Z,1006.97
2017-07-18T07:00:01.151Z,1006.97
2017-07-18T07:00:41.589Z,1006.97
2017-07-18T07:01:22.040Z,1006.97
2017-07-18T07:02:02.573Z,1006.92
2017-07-18T07:02:43.006Z,1006.95
2017-07-18T07:05:11.017Z,1006.91
2017-07-18T07:05:51.421Z,1006.9
2017-07-18T07:06:31.908Z,1006.9
2017-07-18T07:07:12.357Z,1006.88
2017-07-18T07:07:52.818Z,1006.89
2017-07-18T07:08:33.299Z,1006.86
2017-07-18T07:09:13.762Z,1006.89
2017-07-18T07:09:54.410Z,1006.88
2017-07-18T07:10:35.421Z,1006.89
2017-07-18T07:11:15.920Z,1006.88
2017-07-18T07:11:56.400Z,1006.87
2017-07-18T07:12:36.900Z,1006.87
2017-07-18T07:13:17.366Z,1006.88
2017-07-18T07:13:57.871Z,1006.9
2017-07-18T07:14:38.543Z,1006.88
2017-07-18T07:15:19.094Z,1006.92
2017-07-18T07:15:59.551Z,1006.91
2017-07-18T07:17:52.154Z,1006.89
2017-07-18T07:18:32.634Z,1006.88
2017-07-18T07:19:13.184Z,1006.84
2017-07-18T07:19:53.914Z,1006.87
2017-07-18T07:20:34.376Z,1006.86
2017-07-18T07:21:14.858Z,1006.87
2017-07-18T07:21:55.474Z,1006.9
2017-07-18T07:22:35.949Z,1006.9
2017-07-18T07:24:28.676Z,1006.88
2017-07-18T07:25:09.155Z,1006.85
2017-07-18T07:25:49.601Z,1006.88
2017-07-18T07:26:30.078Z,1006.88
2017-07-18T07:27:10.570Z,1006.89
2017-07-18T07:27:51.054Z,1006.87
2017-07-18T07:28:31.547Z,1006.87
2017-07-18T07:29:12.062Z,1006.91
2017-07-18T07:29:52.556Z,1006.9
2017-07-18T07:30:33.047Z,1006.9
2017-07-18T07:31:13.482Z,1006.88
2017-07-18T07:31:53.958Z,1006.88
2017-07-18T07:32:34.417Z,1006.9
2017-07-18T07:33:14.918Z,1006.84
2017-07-18T07:33:55.407Z,1006.89
2017-07-18T07:34:35.873Z,1006.88
2017-07-18T07:35:16.344Z,1006.85
2017-07-18T07:35:56.891Z,1006.87
2017-07-18T07:36:37.961Z,1006.87
2017-07-18T07:37:18.431Z,1006.85
2017-07-18T07:37:58.918Z,1006.82
2017-07-18T07:38:39.405Z,1006.88
2017-07-18T07:39:19.901Z,1006.84
2017-07-18T07:40:00.327Z,1006.84
2017-07-18T07:40:40.879Z,1006.82
2017-07-18T07:41:21.408Z,1006.78
2017-07-18T07:42:01.996Z,1006.77
2017-07-18T07:42:42.458Z,1006.79
2017-07-18T07:43:22.918Z,1006.77
2017-07-18T07:44:03.457Z,1006.75
2017-07-18T07:44:44.031Z,1006.77
2017-07-18T07:45:24.760Z,1006.79
2017-07-18T07:46:05.223Z,1006.77
2017-07-18T07:46:45.711Z,1006.77
2017-07-18T07:47:26.295Z,1006.74
2017-07-18T07:48:06.781Z,1006.79
2017-07-18T07:48:47.321Z,1006.78
2017-07-18T07:49:27.893Z,1006.82
2017-07-18T07:50:08.352Z,1006.77
2017-07-18T07:50:48.801Z,1006.82
2017-07-18T07:51:29.271Z,1006.76
2017-07-18T07:52:09.835Z,1006.77
2017-07-18T07:52:50.255Z,1006.77
2017-07-18T07:53:30.698Z,1006.8
2017-07-18T07:54:11.227Z,1006.75
2017-07-18T07:54:51.729Z,1006.73
2017-07-18T07:55:32.193Z,1006.75
2017-07-18T07:56:12.683Z,1006.72
2017-07-18T07:56:53.185Z,1006.71
2017-07-18T07:57:33.719Z,1006.72
2017-07-18T07:58:15.330Z,1006.72
2017-07-18T07:58:55.712Z,1006.71
2017-07-18T07:59:36.141Z,1006.71
2017-07-18T08:00:16.865Z,1006.71
2017-07-18T08:00:57.365Z,1006.67
2017-07-18T08:01:37.896Z,1006.69
2017-07-18T08:02:18.402Z,1006.67
2017-07-18T08:02:58.893Z,1006.68
2017-07-18T08:03:39.455Z,1006.68
2017-07-18T08:04:20.542Z,1006.67
2017-07-18T08:05:01.157Z,1006.7
2017-07-18T08:05:41.694Z,1006.75
2017-07-18T08:06:22.676Z,1006.77
2017-07-18T08:07:03.166Z,1006.78
2017-07-18T08:08:55.818Z,1006.78
2017-07-18T08:09:36.433Z,1006.73
2017-07-18T08:10:16.903Z,1006.72
2017-07-18T08:10:57.436Z,1006.73
2017-07-18T08:11:37.906Z,1006.71
2017-07-18T08:12:18.448Z,1006.69
2017-07-18T08:12:59.042Z,1006.7
2017-07-18T08:13:39.526Z,1006.68
2017-07-18T08:14:20.015Z,1006.68
2017-07-18T08:15:00.519Z,1006.7
2017-07-18T08:15:41.751Z,1006.69
2017-07-18T08:16:22.303Z,1006.71
2017-07-18T08:17:02.793Z,1006.66
2017-07-18T08:17:43.269Z,1006.7
2017-07-18T08:18:23.776Z,1006.71
2017-07-18T08:19:04.351Z,1006.72
2017-07-18T08:19:44.770Z,1006.72
2017-07-18T08:20:25.522Z,1006.65
2017-07-18T08:21:05.996Z,1006.66
2017-07-18T08:21:46.531Z,1006.66
2017-07-18T08:22:27.196Z,1006.66
2017-07-18T08:23:07.844Z,1006.66
2017-07-18T08:23:48.308Z,1006.67
2017-07-18T08:24:28.774Z,1006.68
2017-07-18T08:25:09.314Z,1006.67
2017-07-18T08:25:49.871Z,1006.65
2017-07-18T08:26:30.682Z,1006.69
2017-07-18T08:27:11.286Z,1006.65
2017-07-18T08:27:51.940Z,1006.63
2017-07-18T08:28:32.633Z,1006.68
2017-07-18T08:29:13.278Z,1006.64
2017-07-18T08:29:53.787Z,1006.61
2017-07-18T08:30:34.493Z,1006.65
2017-07-18T08:31:15.090Z,1006.6
2017-07-18T08:31:55.686Z,1006.6
2017-07-18T08:32:36.387Z,1006.64
2017-07-18T08:33:16.960Z,1006.64
2017-07-18T08:33:57.663Z,1006.64
2017-07-18T08:34:38.689Z,1006.65
2017-07-18T08:35:19.353Z,1006.69
2017-07-18T08:36:00.136Z,1006.66
2017-07-18T08:36:40.706Z,1006.61
2017-07-18T08:37:21.325Z,1006.63
2017-07-18T08:38:02.795Z,1006.64
2017-07-18T08:40:30.271Z,1006.6
2017-07-18T08:41:10.978Z,1006.61
2017-07-18T08:41:51.509Z,1006.59
2017-07-18T08:42:32.289Z,1006.62
2017-07-18T08:43:12.926Z,1006.61
2017-07-18T08:43:53.618Z,1006.61
2017-07-18T08:44:34.241Z,1006.6
2017-07-18T08:45:14.935Z,1006.61
2017-07-18T08:45:55.581Z,1006.58
2017-07-18T08:46:36.188Z,1006.58
2017-07-18T08:47:17.168Z,1006.63
2017-07-18T08:47:57.806Z,1006.59
2017-07-18T08:48:38.464Z,1006.61
2017-07-18T08:49:19.099Z,1006.66
2017-07-18T08:49:59.649Z,1006.61
2017-07-18T08:52:12.455Z,1006.73
2017-07-18T08:52:52.950Z,1006.7
2017-07-18T08:53:33.515Z,1006.69
2017-07-18T08:54:14.022Z,1006.68
2017-07-18T08:54:54.512Z,1006.66
2017-07-18T08:55:35.021Z,1006.61
2017-07-18T08:56:15.452Z,1006.63
2017-07-18T08:58:15.923Z,1006.65
2017-07-18T08:58:56.597Z,1006.61
2017-07-18T08:59:37.085Z,1006.61
2017-07-18T09:00:17.624Z,1006.62
2017-07-18T09:02:15.299Z,1006.65
2017-07-18T09:02:55.776Z,1006.63
2017-07-18T09:03:36.264Z,1006.66
2017-07-18T09:04:16.691Z,1006.68
2017-07-18T09:04:57.257Z,1006.62